Airfield :







YOU CAN JOIN US ON...

 
LOGIN :

Register | Disclaimer

   EN    FR    IT 

 









Legend :    VFR   Marginal VFR   IFR   Intensive IFR   Very Intensive IFR
Visi :
Ceiling :
>= 8 km
>= 3000ft
5 to 8 km
1000 to 3000 ft
1500m to 5 km
500 to 1000 ft
800 to 1500m
200 to 500 ft
< 800m
< 200 ft
Symbols :   Thunderstorms  Fog  Heavy snow  Heavy precipitations  Wind > 20 kt






- Airport Elevation : 461 ft
- IATA code : YYT


CYYT - St John's Int

CURRENT METAR :
  • 111000Z 27010G17KT 15SM OVC005 18/17 A3006 RMK SF8 SLP181 DENSITY ALT 800FT

EXPIRED METARs :
  • 110900Z 25012KT 15SM BKN008 OVC110 18/17 A3006 RMK SF7AC1 SLP179 DENSITY ALT 800FT
  • 110831Z 25006KT 15SM BKN008 BKN090 18/17 A3005 RMK SF6AC1 SLP177 DENSITY ALT 800FT
  • 110800Z 26012KT 15SM SCT007 BKN090 18/17 A3004 RMK SF4AC3 SLP175 DENSITY ALT 800FT

TAF AMD TAF CYYT
Valid from the 11 at 07:00 until the 12 at 06:00 UTC


110724Z 1107/1206 26012KT P6SM BKN004
TEMPO 1107/1112 SCT004
PROB30 1107/1112 3/4SM BR
FM111200 25012KT P6SM FEW012 SCT060
FM111500 26012G22KT P6SM BKN060
FM112000 25012G22KT P6SM FEW060
FM120000 25012KT P6SM FEW006
TEMPO 1201/1203 BKN006
FM120300 25012KT P6SM BKN005 RMK NXT FCST BY 111200Z
CZQX FIR / North America



MET'MAP, your aeronautical weather chart ! - Copyright ORBIFLY December 2007 - Disclaimer

ORBIFLY MET'MAP TEAM :

Programming & Development : Alexandra Zaïnal
Concept & original design : Baudouin d'Aumeries
Assistance for programming : Marc-Olivier Méhu
Technical & hardware support : Manuel Goepfert

Contact : metmap@orbifly.com




SOURCES & CREDITS :

   NOAA